sensor_id;sensor_type;location;lat;lon;timestamp;pressure;altitude;pressure_sealevel;temperature;humidity
11856;BME280;5987;53.140;8.904;2024-02-26T00:00:11;102001.50;;;1.71;100.00
11856;BME280;5987;53.140;8.904;2024-02-26T00:03:16;101998.78;;;1.64;100.00
11856;BME280;5987;53.140;8.904;2024-02-26T00:06:20;102017.97;;;1.75;100.00
11856;BME280;5987;53.140;8.904;2024-02-26T00:09:24;102004.69;;;1.57;100.00
11856;BME280;5987;53.140;8.904;2024-02-26T00:12:30;102010.19;;;1.74;100.00
11856;BME280;5987;53.140;8.904;2024-02-26T00:15:34;102020.59;;;1.77;100.00
11856;BME280;5987;53.140;8.904;2024-02-26T00:18:39;102018.81;;;1.74;100.00
11856;BME280;5987;53.140;8.904;2024-02-26T00:22:10;102030.88;;;1.72;100.00
11856;BME280;5987;53.140;8.904;2024-02-26T00:25:35;102023.75;;;1.62;100.00
11856;BME280;5987;53.140;8.904;2024-02-26T00:28:41;102029.81;;;1.62;100.00
11856;BME280;5987;53.140;8.904;2024-02-26T00:31:45;102031.41;;;1.57;100.00
11856;BME280;5987;53.140;8.904;2024-02-26T00:34:49;102041.06;;;1.64;100.00
11856;BME280;5987;53.140;8.904;2024-02-26T00:37:53;102041.16;;;1.69;100.00
11856;BME280;5987;53.140;8.904;2024-02-26T00:40:57;102049.81;;;1.71;100.00
11856;BME280;5987;53.140;8.904;2024-02-26T00:44:03;102051.53;;;1.69;100.00
11856;BME280;5987;53.140;8.904;2024-02-26T00:47:07;102061.00;;;1.70;100.00
11856;BME280;5987;53.140;8.904;2024-02-26T00:50:11;102067.13;;;1.74;100.00
11856;BME280;5987;53.140;8.904;2024-02-26T00:53:15;102077.50;;;1.74;100.00
11856;BME280;5987;53.140;8.904;2024-02-26T00:56:18;102093.06;;;1.75;100.00
11856;BME280;5987;53.140;8.904;2024-02-26T00:59:24;102101.63;;;1.73;100.00
11856;BME280;5987;53.140;8.904;2024-02-26T01:02:28;102108.53;;;1.72;100.00
11856;BME280;5987;53.140;8.904;2024-02-26T01:05:32;102110.19;;;1.70;100.00
11856;BME280;5987;53.140;8.904;2024-02-26T01:08:35;102112.75;;;1.68;100.00
11856;BME280;5987;53.140;8.904;2024-02-26T01:11:40;102124.78;;;1.65;100.00
11856;BME280;5987;53.140;8.904;2024-02-26T01:14:45;102123.03;;;1.64;100.00
11856;BME280;5987;53.140;8.904;2024-02-26T01:17:49;102126.47;;;1.64;100.00
11856;BME280;5987;53.140;8.904;2024-02-26T01:20:53;102136.84;;;1.64;100.00
11856;BME280;5987;53.140;8.904;2024-02-26T01:23:57;102143.81;;;1.67;100.00
11856;BME280;5987;53.140;8.904;2024-02-26T01:27:01;102157.69;;;1.70;100.00
11856;BME280;5987;53.140;8.904;2024-02-26T01:30:09;102164.59;;;1.71;100.00
11856;BME280;5987;53.140;8.904;2024-02-26T01:33:13;102172.34;;;1.70;100.00
11856;BME280;5987;53.140;8.904;2024-02-26T01:36:17;102170.53;;;1.66;100.00
11856;BME280;5987;53.140;8.904;2024-02-26T01:39:21;102168.84;;;1.68;100.00
11856;BME280;5987;53.140;8.904;2024-02-26T01:42:25;102166.97;;;1.61;100.00
11856;BME280;5987;53.140;8.904;2024-02-26T01:45:30;102166.97;;;1.61;100.00
11856;BME280;5987;53.140;8.904;2024-02-26T01:48:35;102175.59;;;1.61;100.00
11856;BME280;5987;53.140;8.904;2024-02-26T01:51:40;102170.16;;;1.49;100.00
11856;BME280;5987;53.140;8.904;2024-02-26T01:54:46;102157.81;;;1.37;100.00
11856;BME280;5987;53.140;8.904;2024-02-26T01:57:51;102161.31;;;1.39;100.00
11856;BME280;5987;53.140;8.904;2024-02-26T02:00:58;102155.25;;;1.37;100.00
11856;BME280;5987;53.140;8.904;2024-02-26T02:04:03;102145.66;;;1.33;100.00
11856;BME280;5987;53.140;8.904;2024-02-26T02:07:07;102142.84;;;1.24;100.00
11856;BME280;5987;53.140;8.904;2024-02-26T02:10:11;102142.03;;;1.25;100.00
11856;BME280;5987;53.140;8.904;2024-02-26T02:13:15;102142.81;;;1.22;100.00
11856;BME280;5987;53.140;8.904;2024-02-26T02:16:21;102161.13;;;1.30;100.00
11856;BME280;5987;53.140;8.904;2024-02-26T02:19:24;102167.88;;;1.25;100.00
11856;BME280;5987;53.140;8.904;2024-02-26T02:22:30;102164.44;;;1.24;100.00
11856;BME280;5987;53.140;8.904;2024-02-26T02:25:34;102166.06;;;1.20;100.00
11856;BME280;5987;53.140;8.904;2024-02-26T02:28:40;102169.41;;;1.16;100.00
11856;BME280;5987;53.140;8.904;2024-02-26T02:31:44;102160.69;;;1.11;100.00
11856;BME280;5987;53.140;8.904;2024-02-26T02:34:48;102164.19;;;1.13;100.00
11856;BME280;5987;53.140;8.904;2024-02-26T02:37:57;102165.72;;;1.07;100.00
11856;BME280;5987;53.140;8.904;2024-02-26T02:41:01;102163.94;;;1.04;100.00
11856;BME280;5987;53.140;8.904;2024-02-26T02:44:05;102162.06;;;0.97;100.00
11856;BME280;5987;53.140;8.904;2024-02-26T02:47:09;102165.31;;;0.90;100.00
11856;BME280;5987;53.140;8.904;2024-02-26T02:50:13;102164.25;;;0.81;100.00
11856;BME280;5987;53.140;8.904;2024-02-26T02:53:19;102154.59;;;0.74;100.00
11856;BME280;5987;53.140;8.904;2024-02-26T02:56:22;102143.78;;;0.54;100.00
11856;BME280;5987;53.140;8.904;2024-02-26T02:59:27;102157.69;;;0.59;100.00
11856;BME280;5987;53.140;8.904;2024-02-26T03:02:30;102148.91;;;0.53;100.00
11856;BME280;5987;53.140;8.904;2024-02-26T03:05:34;102142.63;;;0.43;100.00
11856;BME280;5987;53.140;8.904;2024-02-26T03:08:39;102135.25;;;0.25;100.00
11856;BME280;5987;53.140;8.904;2024-02-26T03:11:44;102147.53;;;0.33;100.00
11856;BME280;5987;53.140;8.904;2024-02-26T03:14:48;102151.50;;;0.21;100.00
11856;BME280;5987;53.140;8.904;2024-02-26T03:17:53;102154.91;;;0.20;100.00
11856;BME280;5987;53.140;8.904;2024-02-26T03:20:57;102175.81;;;0.29;100.00
11856;BME280;5987;53.140;8.904;2024-02-26T03:24:03;102190.78;;;0.41;100.00
11856;BME280;5987;53.140;8.904;2024-02-26T03:27:07;102177.66;;;0.33;100.00
11856;BME280;5987;53.140;8.904;2024-02-26T03:30:12;102196.88;;;0.43;100.00
11856;BME280;5987;53.140;8.904;2024-02-26T03:33:16;102210.81;;;0.48;100.00
11856;BME280;5987;53.140;8.904;2024-02-26T03:36:20;102220.50;;;0.57;100.00
11856;BME280;5987;53.140;8.904;2024-02-26T03:39:26;102236.22;;;0.64;100.00
11856;BME280;5987;53.140;8.904;2024-02-26T03:42:30;102232.47;;;0.53;100.00
11856;BME280;5987;53.140;8.904;2024-02-26T03:45:34;102252.50;;;0.62;100.00
11856;BME280;5987;53.140;8.904;2024-02-26T03:48:38;102262.34;;;0.43;100.00
11856;BME280;5987;53.140;8.904;2024-02-26T03:51:42;102264.00;;;0.41;100.00
11856;BME280;5987;53.140;8.904;2024-02-26T03:54:47;102268.34;;;0.42;100.00
11856;BME280;5987;53.140;8.904;2024-02-26T03:57:51;102274.56;;;0.49;100.00
11856;BME280;5987;53.140;8.904;2024-02-26T04:00:55;102264.00;;;0.41;100.00
11856;BME280;5987;53.140;8.904;2024-02-26T04:03:59;102277.00;;;0.44;100.00
11856;BME280;5987;53.140;8.904;2024-02-26T04:07:03;102284.75;;;0.44;100.00
11856;BME280;5987;53.140;8.904;2024-02-26T04:10:11;102279.69;;;0.47;100.00
11856;BME280;5987;53.140;8.904;2024-02-26T04:13:15;102289.94;;;0.44;100.00
11856;BME280;5987;53.140;8.904;2024-02-26T04:16:19;102292.44;;;0.41;100.00
11856;BME280;5987;53.140;8.904;2024-02-26T04:19:22;102291.69;;;0.45;100.00
11856;BME280;5987;53.140;8.904;2024-02-26T04:22:26;102301.09;;;0.43;100.00
11856;BME280;5987;53.140;8.904;2024-02-26T04:25:32;102322.81;;;0.50;100.00
11856;BME280;5987;53.140;8.904;2024-02-26T04:28:36;102327.09;;;0.48;100.00
11856;BME280;5987;53.140;8.904;2024-02-26T04:31:39;102328.91;;;0.52;100.00
11856;BME280;5987;53.140;8.904;2024-02-26T04:34:44;102332.25;;;0.48;100.00
11856;BME280;5987;53.140;8.904;2024-02-26T04:37:48;102342.59;;;0.48;100.00
11856;BME280;5987;53.140;8.904;2024-02-26T04:40:54;102353.06;;;0.53;100.00
11856;BME280;5987;53.140;8.904;2024-02-26T04:43:57;102353.78;;;0.48;100.00
11856;BME280;5987;53.140;8.904;2024-02-26T04:47:01;102354.41;;;0.40;100.00
11856;BME280;5987;53.140;8.904;2024-02-26T04:50:06;102365.88;;;0.49;100.00
11856;BME280;5987;53.140;8.904;2024-02-26T04:53:11;102371.91;;;0.50;100.00
11856;BME280;5987;53.140;8.904;2024-02-26T04:56:16;102378.69;;;0.46;100.00
11856;BME280;5987;53.140;8.904;2024-02-26T04:59:20;102371.56;;;0.38;100.00
11856;BME280;5987;53.140;8.904;2024-02-26T05:02:24;102376.88;;;0.42;100.00
11856;BME280;5987;53.140;8.904;2024-02-26T05:05:28;102384.50;;;0.39;100.00
11856;BME280;5987;53.140;8.904;2024-02-26T05:08:32;102383.50;;;0.34;100.00
11856;BME280;5987;53.140;8.904;2024-02-26T05:11:39;102378.34;;;0.34;100.00
11856;BME280;5987;53.140;8.904;2024-02-26T05:14:44;102363.34;;;0.22;100.00
11856;BME280;5987;53.140;8.904;2024-02-26T05:17:48;102358.38;;;0.28;100.00
11856;BME280;5987;53.140;8.904;2024-02-26T05:20:52;102361.72;;;0.26;100.00
11856;BME280;5987;53.140;8.904;2024-02-26T05:23:56;102375.66;;;0.31;100.00
11856;BME280;5987;53.140;8.904;2024-02-26T05:27:01;102380.63;;;0.25;100.00
11856;BME280;5987;53.140;8.904;2024-02-26T05:30:07;102397.44;;;0.39;100.00
11856;BME280;5987;53.140;8.904;2024-02-26T05:33:11;102403.63;;;0.44;100.00
11856;BME280;5987;53.140;8.904;2024-02-26T05:36:20;102418.41;;;0.48;100.00
11856;BME280;5987;53.140;8.904;2024-02-26T05:39:25;102425.28;;;0.48;100.00
11856;BME280;5987;53.140;8.904;2024-02-26T05:42:30;102437.56;;;0.55;100.00
11856;BME280;5987;53.140;8.904;2024-02-26T05:45:34;102444.56;;;0.59;100.00
11856;BME280;5987;53.140;8.904;2024-02-26T05:48:38;102448.16;;;0.64;100.00
11856;BME280;5987;53.140;8.904;2024-02-26T05:51:42;102445.44;;;0.60;100.00
11856;BME280;5987;53.140;8.904;2024-02-26T05:54:46;102453.19;;;0.60;100.00
11856;BME280;5987;53.140;8.904;2024-02-26T05:57:51;102460.16;;;0.62;100.00
11856;BME280;5987;53.140;8.904;2024-02-26T06:00:55;102462.72;;;0.61;100.00
11856;BME280;5987;53.140;8.904;2024-02-26T06:03:59;102467.78;;;0.58;100.00
11856;BME280;5987;53.140;8.904;2024-02-26T06:07:03;102464.25;;;0.56;100.00
11856;BME280;5987;53.140;8.904;2024-02-26T06:10:08;102465.94;;;0.54;100.00
11856;BME280;5987;53.140;8.904;2024-02-26T06:13:13;102470.16;;;0.51;100.00
11856;BME280;5987;53.140;8.904;2024-02-26T06:16:17;102476.06;;;0.47;100.00
11856;BME280;5987;53.140;8.904;2024-02-26T06:19:21;102486.31;;;0.44;100.00
11856;BME280;5987;53.140;8.904;2024-02-26T06:22:25;102487.91;;;0.41;100.00
11856;BME280;5987;53.140;8.904;2024-02-26T06:25:29;102504.44;;;0.46;100.00
11856;BME280;5987;53.140;8.904;2024-02-26T06:28:34;102522.44;;;0.43;100.00
11856;BME280;5987;53.140;8.904;2024-02-26T06:31:43;102532.72;;;0.41;100.00
11856;BME280;5987;53.140;8.904;2024-02-26T06:34:47;102545.88;;;0.49;100.00
11856;BME280;5987;53.140;8.904;2024-02-26T06:37:51;102567.50;;;0.51;100.00
11856;BME280;5987;53.140;8.904;2024-02-26T06:40:55;102583.97;;;0.55;100.00
11856;BME280;5987;53.140;8.904;2024-02-26T06:44:04;102597.88;;;0.58;100.00
11856;BME280;5987;53.140;8.904;2024-02-26T06:47:08;102616.03;;;0.60;100.00
11856;BME280;5987;53.140;8.904;2024-02-26T06:50:12;102618.63;;;0.60;100.00
11856;BME280;5987;53.140;8.904;2024-02-26T06:53:16;102641.16;;;0.64;100.00
11856;BME280;5987;53.140;8.904;2024-02-26T06:56:20;102654.22;;;0.68;100.00
11856;BME280;5987;53.140;8.904;2024-02-26T06:59:26;102667.38;;;0.75;100.00
11856;BME280;5987;53.140;8.904;2024-02-26T07:02:29;102690.69;;;0.76;100.00
11856;BME280;5987;53.140;8.904;2024-02-26T07:05:33;102714.06;;;0.79;100.00
11856;BME280;5987;53.140;8.904;2024-02-26T07:08:42;102744.53;;;0.88;100.00
11856;BME280;5987;53.140;8.904;2024-02-26T07:11:51;102755.00;;;0.93;100.00
11856;BME280;5987;53.140;8.904;2024-02-26T07:15:10;102774.16;;;0.98;100.00
11856;BME280;5987;53.140;8.904;2024-02-26T07:18:14;102799.41;;;1.05;100.00
11856;BME280;5987;53.140;8.904;2024-02-26T07:21:22;102815.25;;;1.14;100.00
11856;BME280;5987;53.140;8.904;2024-02-26T07:24:26;102823.22;;;1.20;100.00
11856;BME280;5987;53.140;8.904;2024-02-26T07:27:30;102849.53;;;1.33;100.00
11856;BME280;5987;53.140;8.904;2024-02-26T07:30:35;102853.88;;;1.34;100.00
11856;BME280;5987;53.140;8.904;2024-02-26T07:33:42;102858.28;;;1.36;100.00
11856;BME280;5987;53.140;8.904;2024-02-26T07:36:52;102874.88;;;1.43;100.00
11856;BME280;5987;53.140;8.904;2024-02-26T07:40:00;102883.63;;;1.47;100.00
11856;BME280;5987;53.140;8.904;2024-02-26T07:43:07;102893.94;;;1.45;100.00
11856;BME280;5987;53.140;8.904;2024-02-26T07:46:13;102896.88;;;1.56;100.00
11856;BME280;5987;53.140;8.904;2024-02-26T07:49:17;102905.75;;;1.63;100.00
11856;BME280;5987;53.140;8.904;2024-02-26T07:52:21;102919.72;;;1.68;100.00
11856;BME280;5987;53.140;8.904;2024-02-26T07:55:27;102924.19;;;1.72;100.00
11856;BME280;5987;53.140;8.904;2024-02-26T07:58:32;102933.91;;;1.79;100.00
11856;BME280;5987;53.140;8.904;2024-02-26T08:01:37;102934.00;;;1.82;100.00
11856;BME280;5987;53.140;8.904;2024-02-26T08:04:42;102933.06;;;1.79;100.00
11856;BME280;5987;53.140;8.904;2024-02-26T08:07:49;102938.38;;;1.83;100.00
11856;BME280;5987;53.140;8.904;2024-02-26T08:10:52;102940.38;;;1.92;100.00
11856;BME280;5987;53.140;8.904;2024-02-26T08:13:59;102930.56;;;1.82;100.00
11856;BME280;5987;53.140;8.904;2024-02-26T08:17:06;102934.34;;;1.92;100.00
11856;BME280;5987;53.140;8.904;2024-02-26T08:20:12;102931.94;;;1.98;100.00
11856;BME280;5987;53.140;8.904;2024-02-26T08:23:18;102940.03;;;2.07;100.00
11856;BME280;5987;53.140;8.904;2024-02-26T08:26:22;102942.06;;;2.17;100.00
11856;BME280;5987;53.140;8.904;2024-02-26T08:29:29;102938.56;;;2.15;100.00
11856;BME280;5987;53.140;8.904;2024-02-26T08:32:34;102938.00;;;2.26;100.00
11856;BME280;5987;53.140;8.904;2024-02-26T08:35:38;102930.16;;;2.22;100.00
11856;BME280;5987;53.140;8.904;2024-02-26T08:38:43;102924.06;;;2.22;100.00
11856;BME280;5987;53.140;8.904;2024-02-26T08:41:49;102908.34;;;2.16;100.00
11856;BME280;5987;53.140;8.904;2024-02-26T08:44:56;102900.78;;;2.23;100.00
11856;BME280;5987;53.140;8.904;2024-02-26T08:48:04;102911.53;;;2.36;100.00
11856;BME280;5987;53.140;8.904;2024-02-26T08:51:09;102901.25;;;2.39;100.00
11856;BME280;5987;53.140;8.904;2024-02-26T08:54:13;102901.41;;;2.44;100.00
11856;BME280;5987;53.140;8.904;2024-02-26T08:57:17;102895.53;;;2.49;100.00
11856;BME280;5987;53.140;8.904;2024-02-26T09:00:21;102882.50;;;2.46;100.00
11856;BME280;5987;53.140;8.904;2024-02-26T09:03:26;102876.84;;;2.61;100.00
11856;BME280;5987;53.140;8.904;2024-02-26T09:06:30;102858.50;;;2.53;100.00
11856;BME280;5987;53.140;8.904;2024-02-26T09:09:34;102852.59;;;2.59;100.00
11856;BME280;5987;53.140;8.904;2024-02-26T09:12:38;102841.22;;;2.54;100.00
11856;BME280;5987;53.140;8.904;2024-02-26T09:15:47;102819.44;;;2.49;100.00
11856;BME280;5987;53.140;8.904;2024-02-26T09:18:53;102819.03;;;2.64;100.00
11856;BME280;5987;53.140;8.904;2024-02-26T09:21:57;102805.31;;;2.68;100.00
11856;BME280;5987;53.140;8.904;2024-02-26T09:25:07;102811.78;;;2.84;100.00
11856;BME280;5987;53.140;8.904;2024-02-26T09:28:14;102774.09;;;2.65;100.00
11856;BME280;5987;53.140;8.904;2024-02-26T09:31:19;102783.63;;;2.98;100.00
11856;BME280;5987;53.140;8.904;2024-02-26T09:34:25;102762.63;;;2.88;100.00
11856;BME280;5987;53.140;8.904;2024-02-26T09:37:29;102744.91;;;3.05;100.00
11856;BME280;5987;53.140;8.904;2024-02-26T09:40:33;102713.84;;;3.08;100.00
11856;BME280;5987;53.140;8.904;2024-02-26T09:43:43;102688.81;;;3.12;100.00
11856;BME280;5987;53.140;8.904;2024-02-26T09:46:48;102670.03;;;3.22;100.00
11856;BME280;5987;53.140;8.904;2024-02-26T09:50:02;102623.16;;;3.16;100.00
11856;BME280;5987;53.140;8.904;2024-02-26T09:53:13;102601.84;;;3.30;100.00
11856;BME280;5987;53.140;8.904;2024-02-26T09:56:17;102554.88;;;3.19;100.00
11856;BME280;5987;53.140;8.904;2024-02-26T09:59:27;102535.41;;;3.39;100.00
11856;BME280;5987;53.140;8.904;2024-02-26T10:02:39;102516.59;;;3.51;100.00
11856;BME280;5987;53.140;8.904;2024-02-26T10:05:55;102483.75;;;3.53;100.00
11856;BME280;5987;53.140;8.904;2024-02-26T10:09:01;102455.63;;;3.78;100.00
11856;BME280;5987;53.140;8.904;2024-02-26T10:12:12;102418.41;;;3.79;100.00
11856;BME280;5987;53.140;8.904;2024-02-26T10:15:35;102401.69;;;4.18;100.00
11856;BME280;5987;53.140;8.904;2024-02-26T10:18:48;102372.47;;;4.35;100.00
11856;BME280;5987;53.140;8.904;2024-02-26T10:22:08;102297.00;;;4.32;100.00
11856;BME280;5987;53.140;8.904;2024-02-26T10:25:13;102249.47;;;4.42;100.00
11856;BME280;5987;53.140;8.904;2024-02-26T10:28:18;102186.16;;;4.40;100.00
11856;BME280;5987;53.140;8.904;2024-02-26T10:31:33;102142.25;;;4.74;100.00
11856;BME280;5987;53.140;8.904;2024-02-26T10:34:40;102098.13;;;4.83;100.00
11856;BME280;5987;53.140;8.904;2024-02-26T10:37:59;102029.56;;;4.78;100.00
11856;BME280;5987;53.140;8.904;2024-02-26T10:41:04;101971.44;;;4.76;100.00
11856;BME280;5987;53.140;8.904;2024-02-26T10:44:12;101921.13;;;4.74;100.00
11856;BME280;5987;53.140;8.904;2024-02-26T10:47:23;101869.00;;;4.57;100.00
11856;BME280;5987;53.140;8.904;2024-02-26T10:50:28;101840.41;;;4.58;100.00
11856;BME280;5987;53.140;8.904;2024-02-26T10:53:35;101824.84;;;4.71;100.00
11856;BME280;5987;53.140;8.904;2024-02-26T10:56:42;101807.53;;;4.76;100.00
11856;BME280;5987;53.140;8.904;2024-02-26T10:59:48;101795.47;;;4.96;100.00
11856;BME280;5987;53.140;8.904;2024-02-26T11:02:57;101767.72;;;5.08;100.00
11856;BME280;5987;53.140;8.904;2024-02-26T11:06:05;101737.34;;;5.18;100.00
11856;BME280;5987;53.140;8.904;2024-02-26T11:09:12;101700.00;;;5.15;100.00
11856;BME280;5987;53.140;8.904;2024-02-26T11:12:18;101679.16;;;5.22;100.00
11856;BME280;5987;53.140;8.904;2024-02-26T11:15:40;101637.53;;;5.05;100.00
11856;BME280;5987;53.140;8.904;2024-02-26T11:18:53;101618.44;;;5.09;100.00
11856;BME280;5987;53.140;8.904;2024-02-26T11:21:58;101604.56;;;5.14;100.00
11856;BME280;5987;53.140;8.904;2024-02-26T11:25:19;101581.94;;;5.35;100.00
11856;BME280;5987;53.140;8.904;2024-02-26T11:28:25;101551.63;;;5.15;100.00
11856;BME280;5987;53.140;8.904;2024-02-26T11:31:32;101531.63;;;5.35;100.00
11856;BME280;5987;53.140;8.904;2024-02-26T11:34:39;101515.09;;;5.43;100.00
11856;BME280;5987;53.140;8.904;2024-02-26T11:37:53;101488.19;;;5.40;100.00
11856;BME280;5987;53.140;8.904;2024-02-26T11:41:00;101475.84;;;5.76;100.00
11856;BME280;5987;53.140;8.904;2024-02-26T11:44:04;101430.69;;;5.72;100.00
11856;BME280;5987;53.140;8.904;2024-02-26T11:47:13;101408.03;;;5.82;100.00
11856;BME280;5987;53.140;8.904;2024-02-26T11:50:40;101391.34;;;6.05;100.00
11856;BME280;5987;53.140;8.904;2024-02-26T11:53:48;101367.28;;;5.72;100.00
11856;BME280;5987;53.140;8.904;2024-02-26T11:56:53;101341.16;;;5.79;100.00
11856;BME280;5987;53.140;8.904;2024-02-26T12:00:12;101310.69;;;5.86;100.00
11856;BME280;5987;53.140;8.904;2024-02-26T12:03:19;101295.09;;;5.84;100.00
11856;BME280;5987;53.140;8.904;2024-02-26T12:06:25;101277.03;;;5.66;100.00
11856;BME280;5987;53.140;8.904;2024-02-26T12:09:34;101278.53;;;5.90;100.00
11856;BME280;5987;53.140;8.904;2024-02-26T12:12:40;101275.78;;;6.06;100.00
11856;BME280;5987;53.140;8.904;2024-02-26T12:15:46;101256.63;;;6.10;100.00
11856;BME280;5987;53.140;8.904;2024-02-26T12:18:59;101240.16;;;6.08;100.00
11856;BME280;5987;53.140;8.904;2024-02-26T12:22:06;101228.81;;;6.09;100.00
11856;BME280;5987;53.140;8.904;2024-02-26T12:25:12;101224.34;;;6.22;100.00
11856;BME280;5987;53.140;8.904;2024-02-26T12:28:18;101205.47;;;6.01;100.00
11856;BME280;5987;53.140;8.904;2024-02-26T12:31:22;101197.34;;;6.24;100.00
11856;BME280;5987;53.140;8.904;2024-02-26T12:34:26;101182.91;;;5.95;100.00
11856;BME280;5987;53.140;8.904;2024-02-26T12:37:32;101188.81;;;6.13;100.00
11856;BME280;5987;53.140;8.904;2024-02-26T12:40:40;101181.81;;;6.16;100.00
11856;BME280;5987;53.140;8.904;2024-02-26T12:43:46;101193.06;;;6.22;100.00
11856;BME280;5987;53.140;8.904;2024-02-26T12:47:00;101177.88;;;5.81;100.00
11856;BME280;5987;53.140;8.904;2024-02-26T12:50:08;101178.56;;;5.97;100.00
11856;BME280;5987;53.140;8.904;2024-02-26T12:53:12;101178.38;;;6.13;100.00
11856;BME280;5987;53.140;8.904;2024-02-26T12:56:18;101184.91;;;6.45;100.00
11856;BME280;5987;53.140;8.904;2024-02-26T12:59:24;101169.53;;;6.26;100.00
11856;BME280;5987;53.140;8.904;2024-02-26T13:02:30;101167.66;;;6.36;100.00
11856;BME280;5987;53.140;8.904;2024-02-26T13:05:35;101160.84;;;6.24;100.00
11856;BME280;5987;53.140;8.904;2024-02-26T13:08:39;101159.13;;;6.23;100.00
11856;BME280;5987;53.140;8.904;2024-02-26T13:11:43;101152.78;;;6.41;100.00
11856;BME280;5987;53.140;8.904;2024-02-26T13:15:00;101140.09;;;6.18;100.00
11856;BME280;5987;53.140;8.904;2024-02-26T13:18:10;101153.03;;;6.24;100.00
11856;BME280;5987;53.140;8.904;2024-02-26T13:21:16;101154.81;;;6.21;100.00
11856;BME280;5987;53.140;8.904;2024-02-26T13:24:22;101155.63;;;6.27;100.00
11856;BME280;5987;53.140;8.904;2024-02-26T13:27:27;101139.38;;;6.05;100.00
11856;BME280;5987;53.140;8.904;2024-02-26T13:30:32;101138.34;;;6.17;100.00
11856;BME280;5987;53.140;8.904;2024-02-26T13:33:37;101143.50;;;6.23;100.00
11856;BME280;5987;53.140;8.904;2024-02-26T13:36:41;101149.78;;;6.07;100.00
11856;BME280;5987;53.140;8.904;2024-02-26T13:39:47;101161.84;;;6.15;100.00
11856;BME280;5987;53.140;8.904;2024-02-26T13:42:51;101167.28;;;5.98;100.00
11856;BME280;5987;53.140;8.904;2024-02-26T13:45:59;101180.06;;;6.17;100.00
11856;BME280;5987;53.140;8.904;2024-02-26T13:49:02;101182.75;;;6.12;100.00
11856;BME280;5987;53.140;8.904;2024-02-26T13:52:06;101198.28;;;6.18;100.00
11856;BME280;5987;53.140;8.904;2024-02-26T13:55:10;101188.06;;;6.01;100.00
11856;BME280;5987;53.140;8.904;2024-02-26T13:58:16;101197.66;;;6.01;100.00
11856;BME280;5987;53.140;8.904;2024-02-26T14:01:30;101190.63;;;6.05;100.00
11856;BME280;5987;53.140;8.904;2024-02-26T14:04:39;101194.91;;;6.10;100.00
11856;BME280;5987;53.140;8.904;2024-02-26T14:07:47;101208.97;;;5.98;100.00
11856;BME280;5987;53.140;8.904;2024-02-26T14:10:54;101209.06;;;5.88;100.00
11856;BME280;5987;53.140;8.904;2024-02-26T14:13:58;101220.28;;;5.94;100.00
11856;BME280;5987;53.140;8.904;2024-02-26T14:17:04;101232.41;;;5.97;100.00
11856;BME280;5987;53.140;8.904;2024-02-26T14:20:09;101235.72;;;6.14;100.00
11856;BME280;5987;53.140;8.904;2024-02-26T14:23:13;101241.75;;;6.20;100.00
11856;BME280;5987;53.140;8.904;2024-02-26T14:26:17;101244.47;;;6.07;100.00
11856;BME280;5987;53.140;8.904;2024-02-26T14:29:21;101252.38;;;6.03;100.00
11856;BME280;5987;53.140;8.904;2024-02-26T14:32:27;101256.75;;;5.97;100.00
11856;BME280;5987;53.140;8.904;2024-02-26T14:35:31;101269.88;;;5.88;100.00
11856;BME280;5987;53.140;8.904;2024-02-26T14:38:35;101277.81;;;5.76;100.00
11856;BME280;5987;53.140;8.904;2024-02-26T14:41:39;101288.13;;;5.83;100.00
11856;BME280;5987;53.140;8.904;2024-02-26T14:44:45;101296.13;;;5.66;100.00
11856;BME280;5987;53.140;8.904;2024-02-26T14:47:51;101304.81;;;5.67;100.00
11856;BME280;5987;53.140;8.904;2024-02-26T14:50:55;101307.50;;;5.58;100.00
11856;BME280;5987;53.140;8.904;2024-02-26T14:54:02;101322.16;;;5.68;100.00
11856;BME280;5987;53.140;8.904;2024-02-26T14:57:06;101317.84;;;5.62;100.00
11856;BME280;5987;53.140;8.904;2024-02-26T15:00:11;101326.66;;;5.49;100.00
11856;BME280;5987;53.140;8.904;2024-02-26T15:03:16;101320.59;;;5.45;100.00
11856;BME280;5987;53.140;8.904;2024-02-26T15:06:20;101322.41;;;5.39;100.00
11856;BME280;5987;53.140;8.904;2024-02-26T15:09:24;101335.44;;;5.36;100.00
11856;BME280;5987;53.140;8.904;2024-02-26T15:12:28;101349.34;;;5.31;100.00
11856;BME280;5987;53.140;8.904;2024-02-26T15:15:34;101352.81;;;5.33;100.00
11856;BME280;5987;53.140;8.904;2024-02-26T15:18:40;101369.34;;;5.28;100.00
11856;BME280;5987;53.140;8.904;2024-02-26T15:21:46;101378.03;;;5.27;100.00
11856;BME280;5987;53.140;8.904;2024-02-26T15:24:50;101381.56;;;5.17;100.00
11856;BME280;5987;53.140;8.904;2024-02-26T15:27:54;101379.78;;;5.26;100.00
11856;BME280;5987;53.140;8.904;2024-02-26T15:30:57;101391.00;;;5.35;100.00
11856;BME280;5987;53.140;8.904;2024-02-26T15:34:03;101401.44;;;5.35;100.00
11856;BME280;5987;53.140;8.904;2024-02-26T15:37:07;101398.91;;;5.21;100.00
11856;BME280;5987;53.140;8.904;2024-02-26T15:40:15;101402.41;;;5.13;100.00
11856;BME280;5987;53.140;8.904;2024-02-26T15:43:23;101420.66;;;5.03;100.00
11856;BME280;5987;53.140;8.904;2024-02-26T15:46:27;101434.53;;;5.03;100.00
11856;BME280;5987;53.140;8.904;2024-02-26T15:49:32;101456.25;;;4.99;100.00
11856;BME280;5987;53.140;8.904;2024-02-26T15:52:37;101467.50;;;5.04;100.00
11856;BME280;5987;53.140;8.904;2024-02-26T15:55:41;101480.56;;;4.96;100.00
11856;BME280;5987;53.140;8.904;2024-02-26T15:58:45;101483.16;;;4.90;100.00
11856;BME280;5987;53.140;8.904;2024-02-26T16:01:49;101496.16;;;4.93;100.00
11856;BME280;5987;53.140;8.904;2024-02-26T16:04:54;101504.88;;;4.74;100.00
11856;BME280;5987;53.140;8.904;2024-02-26T16:08:05;101531.78;;;4.76;100.00
11856;BME280;5987;53.140;8.904;2024-02-26T16:11:10;101546.50;;;4.68;100.00
11856;BME280;5987;53.140;8.904;2024-02-26T16:14:33;101550.84;;;4.56;100.00
11856;BME280;5987;53.140;8.904;2024-02-26T16:17:44;101573.41;;;4.56;100.00
11856;BME280;5987;53.140;8.904;2024-02-26T16:20:52;101592.44;;;4.47;100.00
11856;BME280;5987;53.140;8.904;2024-02-26T16:23:56;101600.25;;;4.42;100.00